Renchville, Illinois
Current Conditions -  °F | °C
As of 3:15 AM on Thursday 23 Oct 2014 (Local Time) from KC75 Reporting Station
Clear Clear  
Wind Chill: 33°   Ceiling: Unl
Heat Index: 37°   Visibility: 10mi
Dew Point: 32°   Wind: 5mph
Humidity: 83%   Direction: 160°SSE
Pressure: 30.2"   Gusts: NA
Location:  40.915°N, 89.5303°W
Report Text: KC75 230815Z AUTO 16004KT 10SM CLR 03/00 A3020 RMK AO2 T00260000
Loading
Personal Weather Stations






























Interactive Weather Map
Tropical Storm Tracking
New forecast layout! Learn more

10-Day Weather Forecast

Advertisements
Track Severe Weather on mobile